Time;durP1;ratioP1;P1;durP2;ratioP2;P2;SDS_P1;SDS_P2;PMS_P1;PMS_P2;Temp;Humidity;BMP_temperature;BMP_pressure;BME280_temperature;BME280_humidity;BME280_pressure;Samples;Min_cycle;Max_cycle;Signal;HPM_P1;HPM_P2
2022/11/02 00:01:26;;;;;;;6.17;2.00;;;11.90;99.90;;;;;;5016006;28;20243;-56
2022/11/02 00:03:54;;;;;;;6.93;1.83;;;11.90;99.90;;;;;;5014943;28;20236;-56
2022/11/02 00:06:23;;;;;;;6.40;1.70;;;11.90;99.90;;;;;;5009897;28;20225;-57
2022/11/02 00:08:51;;;;;;;10.43;2.40;;;11.90;99.90;;;;;;5016158;28;20226;-56
2022/11/02 00:11:19;;;;;;;8.43;1.90;;;11.90;99.90;;;;;;5031426;28;20240;-56
2022/11/02 00:13:48;;;;;;;8.57;2.00;;;11.90;99.90;;;;;;5016092;28;20611;-56
2022/11/02 00:16:18;;;;;;;7.40;1.53;;;11.90;99.90;;;;;;5003610;28;20233;-56
2022/11/02 00:18:51;;;;;;;8.87;2.17;;;11.90;99.90;;;;;;5003184;28;20247;-56
2022/11/02 00:21:21;;;;;;;7.20;1.90;;;11.90;99.90;;;;;;5007574;28;20278;-56
2022/11/02 00:23:49;;;;;;;8.93;1.90;;;12.00;99.90;;;;;;5015889;28;20750;-56
2022/11/02 00:26:18;;;;;;;6.50;1.57;;;11.90;99.90;;;;;;5015871;28;20281;-56
2022/11/02 00:28:47;;;;;;;8.03;2.00;;;12.00;99.90;;;;;;5015832;28;20232;-57
2022/11/02 00:31:16;;;;;;;10.33;2.33;;;12.00;99.90;;;;;;5015351;28;20251;-56
2022/11/02 00:33:44;;;;;;;5.07;1.43;;;11.90;99.90;;;;;;5015328;28;20293;-57
2022/11/02 00:36:12;;;;;;;6.70;1.83;;;11.90;99.90;;;;;;5015527;28;20220;-56
2022/11/02 00:38:40;;;;;;;6.57;1.50;;;11.90;99.90;;;;;;5015430;28;20220;-56
2022/11/02 00:41:08;;;;;;;9.57;1.90;;;11.80;99.90;;;;;;5015523;28;20642;-57
2022/11/02 00:43:36;;;;;;;8.33;2.43;;;11.80;99.90;;;;;;5030486;28;20722;-56
2022/11/02 00:46:06;;;;;;;7.70;2.03;;;11.80;99.90;;;;;;5022330;28;20231;-56
2022/11/02 00:48:35;;;;;;;9.83;2.20;;;11.70;99.90;;;;;;5015315;28;20243;-56
2022/11/02 00:51:03;;;;;;;8.97;1.97;;;11.70;99.90;;;;;;5007873;28;20647;-56
2022/11/02 00:53:32;;;;;;;6.60;1.73;;;11.70;99.90;;;;;;5030225;28;20242;-56
2022/11/02 00:56:01;;;;;;;5.70;1.70;;;11.70;99.90;;;;;;5017492;28;20297;-56
2022/11/02 00:58:29;;;;;;;7.27;1.57;;;11.70;99.90;;;;;;5016382;28;20223;-56
2022/11/02 01:00:57;;;;;;;5.67;1.70;;;11.70;99.90;;;;;;5016777;28;20741;-56
2022/11/02 01:03:27;;;;;;;6.80;1.93;;;11.70;99.90;;;;;;5030037;28;20714;-55
2022/11/02 01:05:55;;;;;;;7.63;1.93;;;11.70;99.90;;;;;;5006958;28;20224;-55
2022/11/02 01:08:23;;;;;;;5.60;1.57;;;11.70;99.90;;;;;;5014995;28;20217;-56
2022/11/02 01:10:51;;;;;;;8.90;1.80;;;11.70;99.90;;;;;;5015262;28;20278;-56
2022/11/02 01:17:00;;;;;;;8.43;1.57;;;11.70;99.90;;;;;;5013754;28;20238;-56
2022/11/02 01:19:30;;;;;;;9.67;2.27;;;11.70;99.90;;;;;;5014471;28;20225;-56
2022/11/02 01:21:58;;;;;;;7.43;1.90;;;11.70;99.90;;;;;;5023693;28;20286;-56
2022/11/02 01:24:26;;;;;;;9.60;1.80;;;11.70;99.90;;;;;;5014637;28;20228;-56
2022/11/02 01:26:54;;;;;;;7.97;2.00;;;11.70;99.90;;;;;;5014280;28;20228;-55
2022/11/02 01:29:22;;;;;;;9.30;2.40;;;11.70;99.90;;;;;;5044260;28;20235;-56
2022/11/02 01:31:52;;;;;;;6.10;2.00;;;11.70;99.90;;;;;;5013809;28;20239;-56
2022/11/02 01:34:21;;;;;;;10.00;2.07;;;11.70;99.90;;;;;;5009515;28;20247;-56
2022/11/02 01:36:50;;;;;;;8.70;1.90;;;11.70;99.90;;;;;;5026781;28;20223;-56
2022/11/02 01:39:18;;;;;;;8.27;2.10;;;11.70;99.90;;;;;;5014638;28;20223;-56
2022/11/02 01:41:51;;;;;;;10.33;2.07;;;11.70;99.90;;;;;;5012720;28;20370;-56
2022/11/02 01:44:30;;;;;;;10.83;2.00;;;11.70;99.90;;;;;;5024430;28;20244;-56
2022/11/02 01:47:02;;;;;;;5.77;1.67;;;11.70;99.90;;;;;;5013040;28;20227;-56
2022/11/02 01:49:33;;;;;;;5.80;1.80;;;11.80;99.90;;;;;;5014215;28;20231;-56
2022/11/02 01:52:08;;;;;;;8.23;2.07;;;11.80;99.90;;;;;;5003231;28;20628;-56
2022/11/02 01:54:42;;;;;;;9.23;1.90;;;11.80;99.90;;;;;;4994413;28;20289;-56
2022/11/02 01:57:13;;;;;;;8.97;1.93;;;11.90;99.90;;;;;;4977027;28;20231;-56
2022/11/02 01:59:44;;;;;;;11.43;1.93;;;11.90;99.90;;;;;;4993025;28;20604;-56
2022/11/02 02:02:19;;;;;;;5.93;1.97;;;11.80;99.90;;;;;;5006357;28;20247;-56
2022/11/02 02:04:53;;;;;;;8.77;1.53;;;11.80;99.90;;;;;;5005560;28;20291;-56
2022/11/02 02:07:26;;;;;;;7.80;1.60;;;11.80;99.90;;;;;;5012640;28;20264;-56
2022/11/02 02:09:56;;;;;;;5.53;1.67;;;11.80;99.90;;;;;;5013877;28;20231;-56
2022/11/02 02:12:25;;;;;;;7.37;1.47;;;11.80;99.90;;;;;;5028732;28;20765;-56
2022/11/02 02:14:54;;;;;;;10.47;1.90;;;11.70;99.90;;;;;;5005515;28;20220;-56
2022/11/02 02:17:31;;;;;;;9.07;1.90;;;11.70;99.90;;;;;;5013791;28;20218;-56
2022/11/02 02:20:05;;;;;;;9.10;1.90;;;11.70;99.90;;;;;;5012173;28;20223;-56
2022/11/02 02:23:11;;;;;;;5.77;1.60;;;11.70;99.90;;;;;;5044510;28;20234;-57
2022/11/02 02:26:27;;;;;;;9.17;2.23;;;11.70;99.90;;;;;;5013379;28;20225;-56
2022/11/02 02:29:01;;;;;;;7.00;1.90;;;11.60;99.90;;;;;;5010263;28;20251;-56
2022/11/02 02:31:35;;;;;;;9.10;1.80;;;11.60;99.90;;;;;;5008536;28;20234;-56
2022/11/02 02:34:11;;;;;;;7.73;2.17;;;11.60;99.90;;;;;;5008215;28;20705;-57
2022/11/02 02:36:45;;;;;;;7.87;1.97;;;11.60;99.90;;;;;;5024312;28;20234;-56
2022/11/02 02:39:24;;;;;;;8.13;2.20;;;11.60;99.90;;;;;;5013030;28;20641;-56
2022/11/02 02:41:57;;;;;;;6.93;1.90;;;11.70;99.90;;;;;;5013044;28;20592;-56
2022/11/02 02:44:32;;;;;;;5.90;2.00;;;11.70;99.90;;;;;;5007225;28;20246;-56
2022/11/02 02:47:08;;;;;;;8.43;1.93;;;11.70;99.90;;;;;;5027315;28;20281;-56
2022/11/02 02:49:40;;;;;;;4.97;1.80;;;11.70;99.90;;;;;;5004515;28;20683;-56
2022/11/02 02:52:10;;;;;;;7.23;2.07;;;11.70;99.90;;;;;;5029112;28;20330;-57
2022/11/02 02:54:43;;;;;;;8.27;2.20;;;11.70;99.90;;;;;;5013358;28;20709;-56
2022/11/02 02:57:15;;;;;;;6.87;1.93;;;11.80;99.90;;;;;;5031590;28;20234;-56
2022/11/02 02:59:47;;;;;;;8.37;1.77;;;11.80;99.90;;;;;;5027732;28;20230;-56
2022/11/02 03:02:21;;;;;;;6.63;1.90;;;11.80;99.90;;;;;;5027643;28;20330;-56
2022/11/02 03:04:49;;;;;;;9.67;1.90;;;11.80;99.90;;;;;;5004535;28;20567;-56
2022/11/02 03:07:22;;;;;;;8.83;2.03;;;11.80;99.90;;;;;;5012913;28;20223;-56
2022/11/02 03:10:01;;;;;;;10.13;1.67;;;11.80;99.90;;;;;;5043111;28;20225;-56
2022/11/02 03:12:39;;;;;;;8.87;2.00;;;11.90;99.90;;;;;;5027853;28;20258;-58
2022/11/02 03:15:13;;;;;;;8.40;1.60;;;11.90;99.90;;;;;;5011629;28;20234;-58
2022/11/02 03:17:51;;;;;;;7.07;1.90;;;11.90;99.90;;;;;;5012691;28;20238;-56
2022/11/02 03:20:25;;;;;;;9.67;2.10;;;12.00;99.90;;;;;;5022649;28;20256;-56
2022/11/02 03:23:03;;;;;;;5.60;1.47;;;12.00;99.90;;;;;;5010785;28;20322;-56
2022/11/02 03:25:39;;;;;;;9.73;2.23;;;12.00;99.90;;;;;;5032008;28;20710;-56
2022/11/02 03:28:12;;;;;;;7.57;2.20;;;12.10;99.90;;;;;;5031983;28;20261;-56
2022/11/02 03:30:46;;;;;;;6.23;1.53;;;12.10;99.90;;;;;;5027829;28;20235;-56
2022/11/02 03:33:19;;;;;;;12.17;2.50;;;12.10;99.90;;;;;;5016728;28;20218;-57
2022/11/02 03:35:55;;;;;;;8.00;2.00;;;12.10;99.90;;;;;;5040113;28;20305;-57
2022/11/02 03:38:32;;;;;;;7.93;1.83;;;12.10;99.90;;;;;;5015271;28;20230;-56
2022/11/02 03:41:03;;;;;;;7.93;2.13;;;12.10;99.90;;;;;;5031403;28;20574;-57
2022/11/02 03:43:34;;;;;;;9.13;1.77;;;12.10;99.90;;;;;;5031460;28;20246;-56
2022/11/02 03:46:08;;;;;;;9.67;2.20;;;12.10;99.90;;;;;;5023326;28;20230;-56
2022/11/02 03:48:40;;;;;;;7.13;1.90;;;12.10;99.90;;;;;;5031537;28;20267;-56
2022/11/02 03:51:13;;;;;;;10.20;2.10;;;12.10;99.90;;;;;;5011435;28;20220;-56
2022/11/02 03:53:48;;;;;;;8.57;2.07;;;12.10;99.90;;;;;;4996612;28;20223;-56
2022/11/02 03:56:21;;;;;;;11.93;2.47;;;12.10;99.90;;;;;;5012008;28;20231;-56
2022/11/02 03:58:51;;;;;;;8.93;2.37;;;12.10;99.90;;;;;;4995704;28;20232;-56
2022/11/02 04:01:21;;;;;;;8.70;2.23;;;12.10;99.90;;;;;;5012009;28;20227;-56
2022/11/02 04:03:49;;;;;;;5.93;1.73;;;12.10;99.90;;;;;;5013835;28;20373;-56
2022/11/02 04:06:18;;;;;;;6.27;1.93;;;12.10;99.90;;;;;;4991778;28;20246;-56
2022/11/02 04:08:49;;;;;;;7.67;2.20;;;12.00;99.90;;;;;;5014764;28;20237;-56
2022/11/02 04:19:45;;;;;;;5.03;1.93;;;12.10;99.90;;;;;;5015326;28;20699;-56
2022/11/02 04:25:20;;;;;;;7.67;1.70;;;12.10;99.90;;;;;;5031113;28;20234;-56
2022/11/02 04:28:14;;;;;;;14.27;2.17;;;12.10;99.90;;;;;;5015721;28;20256;-56
2022/11/02 04:30:49;;;;;;;12.97;1.93;;;12.10;99.90;;;;;;5013647;28;20765;-56
2022/11/02 04:33:32;;;;;;;6.33;1.80;;;12.10;99.90;;;;;;5030710;28;20235;-56
2022/11/02 04:36:11;;;;;;;8.53;1.73;;;12.10;99.90;;;;;;5005781;28;20231;-56
2022/11/02 04:38:39;;;;;;;9.70;2.37;;;12.10;99.90;;;;;;5030673;28;20263;-56
2022/11/02 04:41:42;;;;;;;9.33;1.93;;;12.10;99.90;;;;;;5013951;28;20230;-56
2022/11/02 04:44:17;;;;;;;8.53;1.67;;;12.10;99.90;;;;;;5010707;28;20279;-56
2022/11/02 04:46:58;;;;;;;9.63;2.10;;;12.20;99.90;;;;;;5045764;28;20288;-56
2022/11/02 04:49:31;;;;;;;9.17;2.00;;;12.20;99.90;;;;;;5015420;28;20222;-56
2022/11/02 04:52:00;;;;;;;6.93;1.87;;;12.20;99.90;;;;;;5005860;28;20328;-56
2022/11/02 04:54:30;;;;;;;7.33;1.60;;;12.20;99.90;;;;;;5030253;28;20709;-56
2022/11/02 04:57:02;;;;;;;6.93;1.90;;;12.20;99.90;;;;;;5025322;28;20315;-56
2022/11/02 04:59:31;;;;;;;6.00;1.90;;;12.20;99.90;;;;;;4996595;28;20447;-56
2022/11/02 05:01:59;;;;;;;10.53;2.50;;;12.10;99.90;;;;;;5013324;28;20258;-56
2022/11/02 05:04:28;;;;;;;8.73;1.80;;;12.00;99.90;;;;;;5007493;28;20237;-56
2022/11/02 05:06:59;;;;;;;6.50;1.70;;;12.10;99.90;;;;;;5013584;28;20240;-56
2022/11/02 05:09:32;;;;;;;7.07;1.63;;;12.00;99.90;;;;;;5013288;28;20278;-56
2022/11/02 05:12:03;;;;;;;9.30;2.07;;;11.90;99.90;;;;;;5013649;28;20230;-56
2022/11/02 05:14:33;;;;;;;7.43;1.80;;;11.90;99.90;;;;;;5021635;28;20236;-57
2022/11/02 05:17:02;;;;;;;9.30;1.90;;;11.90;99.90;;;;;;5011336;28;20286;-56
2022/11/02 05:19:31;;;;;;;8.17;1.97;;;11.80;99.90;;;;;;5027272;28;20571;-57
2022/11/02 05:22:02;;;;;;;7.23;2.00;;;11.90;99.90;;;;;;5010231;28;20327;-56
2022/11/02 05:24:31;;;;;;;7.83;1.90;;;11.80;99.90;;;;;;5010055;28;20696;-56
2022/11/02 05:27:00;;;;;;;9.10;1.90;;;11.80;99.90;;;;;;5007187;28;20226;-56
2022/11/02 05:29:31;;;;;;;8.03;1.93;;;11.80;99.90;;;;;;5008223;28;20220;-56
2022/11/02 05:31:59;;;;;;;8.37;1.90;;;11.80;99.90;;;;;;5003628;28;20348;-56
2022/11/02 05:34:28;;;;;;;7.57;1.63;;;11.80;99.90;;;;;;5009308;28;20214;-57
2022/11/02 05:36:56;;;;;;;8.63;1.83;;;11.80;99.90;;;;;;5022281;28;20228;-56
2022/11/02 05:39:26;;;;;;;9.67;2.00;;;11.70;99.90;;;;;;5039856;28;20236;-56
2022/11/02 05:41:54;;;;;;;7.07;2.20;;;11.70;99.90;;;;;;5003434;28;20235;-57
2022/11/02 05:44:22;;;;;;;8.23;1.97;;;11.70;99.90;;;;;;5005886;28;20280;-56
2022/11/02 05:46:50;;;;;;;9.03;2.10;;;11.70;99.90;;;;;;5012687;28;20261;-56
2022/11/02 05:49:18;;;;;;;5.33;1.70;;;11.80;99.90;;;;;;5007424;28;20239;-57
2022/11/02 05:51:47;;;;;;;7.33;1.90;;;11.80;99.90;;;;;;4999128;28;20314;-56
2022/11/02 05:54:16;;;;;;;10.00;1.80;;;11.80;99.90;;;;;;5002733;28;20226;-56
2022/11/02 05:56:45;;;;;;;7.70;1.50;;;11.80;99.90;;;;;;5003812;28;20235;-56
2022/11/02 05:59:13;;;;;;;8.47;1.80;;;11.80;99.90;;;;;;5011852;28;20223;-56
2022/11/02 06:01:41;;;;;;;5.50;1.60;;;11.80;99.90;;;;;;4995567;28;20247;-56
2022/11/02 06:04:09;;;;;;;9.60;1.60;;;11.80;99.90;;;;;;5004312;28;20232;-56
2022/11/02 06:06:38;;;;;;;6.97;1.67;;;11.90;99.90;;;;;;5008246;28;20236;-56
2022/11/02 06:09:06;;;;;;;7.30;1.93;;;11.80;99.90;;;;;;5005536;28;20676;-56
2022/11/02 06:11:34;;;;;;;6.70;1.90;;;11.80;99.90;;;;;;5005073;28;20228;-56
2022/11/02 06:14:04;;;;;;;9.73;1.83;;;11.80;99.90;;;;;;5005676;28;20227;-56
2022/11/02 06:16:32;;;;;;;5.70;1.60;;;11.80;99.90;;;;;;4997603;28;20240;-56
2022/11/02 06:19:00;;;;;;;6.13;1.60;;;11.80;99.90;;;;;;5000222;28;20236;-56
2022/11/02 06:21:28;;;;;;;3.23;1.40;;;11.80;99.90;;;;;;5004968;28;20236;-56
2022/11/02 06:23:57;;;;;;;3.87;1.50;;;11.90;99.90;;;;;;5011018;28;20713;-55
2022/11/02 06:26:25;;;;;;;6.33;1.40;;;11.80;99.90;;;;;;5004755;28;20695;-56
2022/11/02 06:28:53;;;;;;;5.97;1.50;;;11.80;99.90;;;;;;5000650;28;20233;-56
2022/11/02 06:31:23;;;;;;;4.80;1.20;;;11.80;99.90;;;;;;5017496;28;20240;-56
2022/11/02 06:33:51;;;;;;;4.50;1.43;;;11.80;99.90;;;;;;5011032;28;20279;-56
2022/11/02 06:36:19;;;;;;;4.43;1.30;;;11.80;99.90;;;;;;5009831;28;20297;-56
2022/11/02 06:38:47;;;;;;;4.97;1.30;;;11.80;99.90;;;;;;5005938;28;20618;-56
2022/11/02 06:41:15;;;;;;;4.33;1.30;;;11.80;99.90;;;;;;5008867;28;20225;-56
2022/11/02 06:43:43;;;;;;;6.07;1.40;;;11.80;99.90;;;;;;5001836;28;20294;-56
2022/11/02 06:46:11;;;;;;;4.67;1.83;;;11.80;99.90;;;;;;5005711;28;20233;-57
2022/11/02 06:48:41;;;;;;;5.07;1.37;;;11.80;99.90;;;;;;5004832;28;20239;-56
2022/11/02 06:51:09;;;;;;;4.23;1.37;;;11.80;99.90;;;;;;4998828;28;20631;-56
2022/11/02 06:53:37;;;;;;;5.80;1.57;;;11.70;99.90;;;;;;5003350;28;20232;-56
2022/11/02 06:56:06;;;;;;;4.67;1.93;;;11.70;99.90;;;;;;4997661;28;20710;-56
2022/11/02 06:58:34;;;;;;;6.40;1.70;;;11.70;99.90;;;;;;5005581;28;20717;-56
2022/11/02 07:01:04;;;;;;;5.53;1.57;;;11.70;99.90;;;;;;5004671;28;20232;-55
2022/11/02 07:03:32;;;;;;;6.17;1.43;;;11.70;99.90;;;;;;5002475;28;20631;-55
2022/11/02 07:06:02;;;;;;;7.23;1.77;;;11.70;99.90;;;;;;5000445;28;20282;-56
2022/11/02 07:08:30;;;;;;;8.27;1.77;;;11.70;99.90;;;;;;5002021;28;20225;-56
2022/11/02 07:10:58;;;;;;;7.33;1.90;;;11.80;99.90;;;;;;5002217;28;20231;-56
2022/11/02 07:13:26;;;;;;;7.73;1.87;;;11.80;99.90;;;;;;5003135;28;20227;-55
2022/11/02 07:15:54;;;;;;;6.60;2.37;;;11.80;99.90;;;;;;5009917;28;20254;-56
2022/11/02 07:18:23;;;;;;;7.47;2.10;;;11.90;99.90;;;;;;5006932;28;20227;-56
2022/11/02 07:20:51;;;;;;;8.70;2.03;;;11.90;99.90;;;;;;5007936;28;20705;-56
2022/11/02 07:23:22;;;;;;;8.03;1.60;;;11.90;99.90;;;;;;5000956;28;20700;-56
2022/11/02 07:25:51;;;;;;;10.00;2.00;;;12.00;99.90;;;;;;5005227;28;20314;-56
2022/11/02 07:28:20;;;;;;;8.93;2.37;;;11.90;99.90;;;;;;4999832;28;20279;-56
2022/11/02 07:30:48;;;;;;;11.50;2.20;;;12.00;99.90;;;;;;5007748;28;20772;-56
2022/11/02 07:33:16;;;;;;;6.47;2.03;;;12.00;99.90;;;;;;5004238;28;20221;-56
2022/11/02 07:35:44;;;;;;;8.37;1.90;;;12.10;99.90;;;;;;5002062;28;20679;-56
2022/11/02 07:38:12;;;;;;;7.97;2.03;;;12.10;99.90;;;;;;5009097;28;20225;-56
2022/11/02 07:40:42;;;;;;;10.10;2.00;;;12.10;99.90;;;;;;5006250;28;20223;-53
2022/11/02 07:43:10;;;;;;;9.53;1.93;;;12.10;99.90;;;;;;5006513;28;20242;-56
2022/11/02 07:45:55;;;;;;;11.50;1.87;;;12.20;99.90;;;;;;5007216;28;20228;-58
2022/11/02 07:48:23;;;;;;;9.30;3.07;;;12.30;99.90;;;;;;5007962;28;20236;-56
2022/11/02 07:50:51;;;;;;;7.43;1.83;;;12.40;99.90;;;;;;5002300;28;20237;-56
2022/11/02 07:53:19;;;;;;;7.37;1.93;;;12.40;99.90;;;;;;5003038;28;20232;-56
2022/11/02 07:55:48;;;;;;;7.70;1.63;;;12.40;99.90;;;;;;5006080;28;20244;-56
2022/11/02 07:58:16;;;;;;;9.67;2.00;;;12.50;99.90;;;;;;4998948;28;20239;-57
2022/11/02 08:00:44;;;;;;;9.63;1.83;;;12.60;99.90;;;;;;5001511;28;20240;-56
2022/11/02 08:03:13;;;;;;;9.70;2.20;;;12.70;99.90;;;;;;5002995;28;20612;-56
2022/11/02 08:05:42;;;;;;;10.83;2.17;;;12.80;99.90;;;;;;5005673;28;20228;-56
2022/11/02 08:08:13;;;;;;;8.07;2.00;;;12.90;99.90;;;;;;5010063;28;20285;-56
2022/11/02 08:10:41;;;;;;;8.20;1.60;;;13.00;99.90;;;;;;5008100;28;20239;-56
2022/11/02 08:13:12;;;;;;;7.03;2.00;;;13.00;99.90;;;;;;5009013;28;20304;-56
2022/11/02 08:15:41;;;;;;;6.17;1.73;;;13.10;99.90;;;;;;5002243;28;20224;-56
2022/11/02 08:18:13;;;;;;;8.07;1.90;;;13.20;99.90;;;;;;5006889;28;20235;-57
2022/11/02 08:20:42;;;;;;;9.37;2.33;;;13.20;99.90;;;;;;5013108;28;20746;-56
2022/11/02 08:23:10;;;;;;;9.70;2.30;;;13.20;99.90;;;;;;5011686;28;20221;-56
2022/11/02 08:25:40;;;;;;;6.43;1.80;;;13.30;99.90;;;;;;4998748;28;20217;-56
2022/11/02 08:28:12;;;;;;;11.20;2.20;;;13.20;99.90;;;;;;5001916;28;20236;-56
2022/11/02 08:30:40;;;;;;;6.17;1.93;;;13.20;99.90;;;;;;4996493;28;20237;-56
2022/11/02 08:33:12;;;;;;;6.83;2.03;;;13.30;99.90;;;;;;5002509;28;20233;-56
2022/11/02 08:35:40;;;;;;;11.90;2.00;;;13.50;99.90;;;;;;5006335;28;20243;-56
2022/11/02 08:38:09;;;;;;;9.50;2.20;;;13.60;99.90;;;;;;5007059;28;20221;-56
2022/11/02 08:40:38;;;;;;;13.13;2.10;;;13.60;99.90;;;;;;5009297;28;20240;-56
2022/11/02 08:43:07;;;;;;;9.83;2.17;;;13.50;99.90;;;;;;5012079;28;20632;-56
2022/11/02 08:45:38;;;;;;;8.43;1.90;;;13.40;99.90;;;;;;5004952;28;20288;-56
2022/11/02 08:48:27;;;;;;;7.37;1.90;;;13.30;99.90;;;;;;5012023;28;20222;-56
2022/11/02 08:50:55;;;;;;;10.87;1.90;;;13.30;99.90;;;;;;5008980;28;20248;-56
2022/11/02 08:53:23;;;;;;;8.73;1.87;;;13.20;99.90;;;;;;5003854;28;20713;-56
2022/11/02 08:55:51;;;;;;;8.27;1.90;;;13.30;99.90;;;;;;5003831;28;20239;-56
2022/11/02 08:58:19;;;;;;;7.53;1.80;;;13.20;99.90;;;;;;5004153;28;20278;-56
2022/11/02 09:00:49;;;;;;;7.13;1.70;;;13.20;99.90;;;;;;4998062;28;20238;-56
2022/11/02 09:03:17;;;;;;;8.40;1.87;;;13.20;99.90;;;;;;5009568;28;20252;-56
2022/11/02 09:05:57;;;;;;;8.67;2.30;;;13.30;99.90;;;;;;5001377;28;20231;-55
2022/11/02 09:08:26;;;;;;;8.37;1.80;;;13.30;99.90;;;;;;5003863;28;20240;-54
2022/11/02 09:10:58;;;;;;;8.07;1.77;;;13.20;99.90;;;;;;5001845;28;20625;-56
2022/11/02 09:13:27;;;;;;;7.23;1.80;;;13.20;99.90;;;;;;5041025;28;20355;-56
2022/11/02 09:15:58;;;;;;;6.70;1.97;;;13.10;99.90;;;;;;5011073;28;20264;-58
2022/11/02 09:18:27;;;;;;;6.07;1.77;;;13.20;99.90;;;;;;5003589;28;20244;-56
2022/11/02 09:20:55;;;;;;;6.53;1.60;;;13.20;99.90;;;;;;5005587;28;20224;-56
2022/11/02 09:23:23;;;;;;;6.77;1.70;;;13.20;99.90;;;;;;4998300;28;20236;-56
2022/11/02 09:25:52;;;;;;;5.93;2.07;;;13.20;99.90;;;;;;5010412;28;20224;-57
2022/11/02 09:28:20;;;;;;;8.13;2.13;;;13.20;99.90;;;;;;5016401;28;20240;-57
2022/11/02 09:30:49;;;;;;;5.43;1.80;;;13.20;99.90;;;;;;5010657;28;20327;-56
2022/11/02 09:33:18;;;;;;;6.60;1.60;;;13.20;99.90;;;;;;5011576;28;20247;-56
2022/11/02 09:35:48;;;;;;;7.47;1.70;;;13.20;99.90;;;;;;5018262;28;20231;-55
2022/11/02 09:38:18;;;;;;;8.40;1.63;;;13.00;99.90;;;;;;5016106;28;20235;-56
2022/11/02 09:40:54;;;;;;;9.17;1.50;;;12.90;99.90;;;;;;5018461;28;20230;-57
2022/11/02 09:43:36;;;;;;;9.13;2.10;;;12.90;99.90;;;;;;5021117;28;20254;-56
2022/11/02 09:46:07;;;;;;;8.60;1.63;;;12.90;99.90;;;;;;5016754;28;20252;-56
2022/11/02 09:48:41;;;;;;;8.10;1.50;;;12.80;99.90;;;;;;5016341;28;20231;-58
2022/11/02 09:51:13;;;;;;;6.77;1.60;;;12.60;99.90;;;;;;5014755;28;20327;-56
2022/11/02 09:53:49;;;;;;;9.73;1.90;;;12.50;99.90;;;;;;5019642;28;20305;-56
2022/11/02 09:56:19;;;;;;;3.67;1.10;;;12.40;99.90;;;;;;5018875;28;20234;-56
2022/11/02 09:58:51;;;;;;;5.20;1.27;;;12.30;99.90;;;;;;5018417;28;20231;-57
2022/11/02 10:01:32;;;;;;;5.37;1.43;;;12.20;99.90;;;;;;5017615;28;20232;-56
2022/11/02 10:04:28;;;;;;;4.10;1.70;;;12.20;99.90;;;;;;5016428;28;20225;-56
2022/11/02 10:07:06;;;;;;;5.23;1.50;;;12.20;99.90;;;;;;5017026;28;20242;-58
2022/11/02 10:09:42;;;;;;;5.57;1.40;;;12.20;99.90;;;;;;5017009;28;20230;-57
2022/11/02 10:12:13;;;;;;;6.80;1.83;;;12.30;99.90;;;;;;5022434;28;20304;-56
2022/11/02 10:14:50;;;;;;;4.93;1.57;;;12.50;99.90;;;;;;5018881;28;20278;-56
2022/11/02 10:17:22;;;;;;;6.20;1.80;;;12.70;99.90;;;;;;5014808;28;20233;-56
2022/11/02 10:19:55;;;;;;;7.67;1.83;;;12.90;99.90;;;;;;5015058;28;20695;-57
2022/11/02 10:22:27;;;;;;;7.57;1.90;;;12.80;99.90;;;;;;5019658;28;20236;-56
2022/11/02 10:24:57;;;;;;;7.63;1.70;;;12.90;99.90;;;;;;5019095;28;20246;-57
2022/11/02 10:27:29;;;;;;;7.70;1.67;;;12.90;99.90;;;;;;5020565;28;20691;-56
2022/11/02 10:30:03;;;;;;;9.03;1.73;;;12.90;99.90;;;;;;5024864;28;20227;-56
2022/11/02 10:32:32;;;;;;;9.47;1.93;;;12.90;99.90;;;;;;5017757;28;20227;-56
2022/11/02 10:35:06;;;;;;;6.43;1.70;;;12.90;99.90;;;;;;5018446;28;20228;-56
2022/11/02 10:38:11;;;;;;;4.63;1.40;;;13.00;99.90;;;;;;5020562;28;20273;-57
2022/11/02 10:41:17;;;;;;;6.07;1.70;;;13.00;99.90;;;;;;5015707;28;20221;-58
2022/11/02 10:44:08;;;;;;;5.60;1.30;;;13.10;99.90;;;;;;5022035;28;20327;-56
2022/11/02 10:46:51;;;;;;;4.73;1.40;;;13.20;99.90;;;;;;5016493;28;20228;-57
2022/11/02 10:49:38;;;;;;;6.20;1.50;;;13.20;99.90;;;;;;5020353;28;20231;-56
2022/11/02 10:52:13;;;;;;;7.03;1.37;;;13.20;99.90;;;;;;5012616;28;20251;-57
2022/11/02 10:54:41;;;;;;;9.23;1.90;;;13.10;99.90;;;;;;5020136;28;20717;-56
2022/11/02 10:57:12;;;;;;;5.03;1.30;;;13.10;99.90;;;;;;5013444;28;20225;-55
2022/11/02 10:59:41;;;;;;;5.10;1.60;;;13.20;99.90;;;;;;5021802;28;20231;-56
2022/11/02 11:02:12;;;;;;;4.87;1.37;;;13.20;99.90;;;;;;5018087;28;20278;-57
2022/11/02 11:04:41;;;;;;;6.90;1.30;;;13.20;99.90;;;;;;5017866;28;20312;-57
2022/11/02 11:07:17;;;;;;;6.20;1.33;;;13.00;99.90;;;;;;5013323;28;20224;-56
2022/11/02 11:09:50;;;;;;;6.67;1.10;;;12.90;99.90;;;;;;5016265;28;20323;-57
2022/11/02 11:12:24;;;;;;;4.67;1.10;;;12.90;99.90;;;;;;5019207;28;20293;-56
2022/11/02 11:14:55;;;;;;;5.40;1.60;;;12.80;99.90;;;;;;5013753;28;20227;-57
2022/11/02 11:17:43;;;;;;;6.63;1.40;;;12.80;99.90;;;;;;5010692;28;20711;-57
2022/11/02 11:20:34;;;;;;;4.53;1.37;;;12.70;99.90;;;;;;5018334;28;20341;-56
2022/11/02 11:23:18;;;;;;;6.73;1.20;;;12.60;99.90;;;;;;5018556;28;20230;-57
2022/11/02 11:25:58;;;;;;;4.50;1.20;;;12.60;99.90;;;;;;5018486;28;20237;-57
2022/11/02 11:28:28;;;;;;;6.27;1.10;;;12.50;99.90;;;;;;5013151;28;20232;-57
2022/11/02 11:31:12;;;;;;;4.97;1.07;;;12.50;99.90;;;;;;5012751;28;20332;-57
2022/11/02 11:33:50;;;;;;;4.33;1.00;;;12.40;99.90;;;;;;5015177;28;20282;-57
2022/11/02 11:36:25;;;;;;;6.87;1.13;;;12.30;99.90;;;;;;5016574;28;20249;-57
2022/11/02 11:39:01;;;;;;;5.13;1.00;;;12.30;99.90;;;;;;5018545;28;20226;-57
2022/11/02 11:41:31;;;;;;;5.80;1.57;;;12.20;99.90;;;;;;5022302;28;20568;-56
2022/11/02 11:44:01;;;;;;;3.77;1.40;;;12.20;99.90;;;;;;5024224;28;20247;-57
2022/11/02 11:46:40;;;;;;;8.13;1.50;;;12.10;99.90;;;;;;5020702;28;20234;-57
2022/11/02 11:49:20;;;;;;;7.10;1.63;;;12.10;99.90;;;;;;5021089;28;20234;-57
2022/11/02 11:52:04;;;;;;;7.37;1.60;;;12.10;99.90;;;;;;5022026;28;20257;-57
2022/11/02 11:54:33;;;;;;;5.00;1.37;;;12.10;99.90;;;;;;5021613;28;20269;-57
2022/11/02 11:57:23;;;;;;;5.33;1.27;;;12.20;99.90;;;;;;5023338;28;20629;-56
2022/11/02 11:59:54;;;;;;;7.07;1.50;;;12.30;99.90;;;;;;5021309;28;20223;-58
2022/11/02 12:02:24;;;;;;;5.47;1.20;;;12.30;99.90;;;;;;5020461;28;20630;-58
2022/11/02 12:04:59;;;;;;;4.13;1.23;;;12.20;99.90;;;;;;5020987;28;20712;-57
2022/11/02 12:08:01;;;;;;;6.83;1.70;;;12.20;99.90;;;;;;5020725;28;20241;-57
2022/11/02 12:10:47;;;;;;;6.73;1.50;;;12.30;99.90;;;;;;5008101;28;20249;-57
2022/11/02 12:13:26;;;;;;;6.93;1.57;;;12.50;99.90;;;;;;5020035;28;20235;-56
2022/11/02 12:16:07;;;;;;;11.80;1.80;;;12.60;99.90;;;;;;5017037;28;20239;-56
2022/11/02 12:18:49;;;;;;;4.50;1.27;;;12.70;99.90;;;;;;5009932;28;20230;-56
2022/11/02 12:21:37;;;;;;;4.03;1.10;;;12.80;99.90;;;;;;5018142;28;20234;-56
2022/11/02 12:24:23;;;;;;;5.47;1.20;;;12.90;99.90;;;;;;5018739;28;20227;-55
2022/11/02 12:27:07;;;;;;;5.70;1.40;;;13.00;99.90;;;;;;5018858;28;20753;-57
2022/11/02 12:29:49;;;;;;;6.20;1.43;;;13.10;99.90;;;;;;5014336;28;20610;-56
2022/11/02 12:32:29;;;;;;;8.50;1.30;;;13.20;99.90;;;;;;5017779;28;20239;-55
2022/11/02 12:35:24;;;;;;;4.80;1.20;;;13.30;99.90;;;;;;5018893;28;20227;-55
2022/11/02 12:38:22;;;;;;;4.37;1.20;;;13.40;99.90;;;;;;5018282;28;20235;-57
2022/11/02 12:40:59;;;;;;;5.30;1.30;;;13.50;99.90;;;;;;5012053;28;20642;-56
2022/11/02 12:43:42;;;;;;;6.20;1.33;;;13.50;99.90;;;;;;5011803;28;20246;-57
2022/11/02 12:46:22;;;;;;;5.87;1.20;;;13.50;99.90;;;;;;5016653;28;20334;-57
2022/11/02 12:48:59;;;;;;;6.13;1.50;;;13.50;99.90;;;;;;5014952;28;20232;-55
2022/11/02 12:51:33;;;;;;;6.40;1.73;;;13.30;99.90;;;;;;5017016;28;20713;-56
2022/11/02 12:54:09;;;;;;;8.47;1.70;;;13.20;99.90;;;;;;5008469;28;20233;-59
2022/11/02 12:56:45;;;;;;;6.70;1.50;;;13.10;99.90;;;;;;5015572;28;20220;-59
2022/11/02 12:59:20;;;;;;;6.70;1.30;;;13.00;99.90;;;;;;5016419;28;20273;-59
2022/11/02 13:01:51;;;;;;;6.77;1.80;;;12.90;99.90;;;;;;5010553;28;20611;-59
2022/11/02 13:04:23;;;;;;;7.03;1.60;;;12.90;99.90;;;;;;5008475;28;20240;-59
2022/11/02 13:07:02;;;;;;;5.07;1.50;;;13.00;99.90;;;;;;5003967;28;20565;-59
2022/11/02 13:09:34;;;;;;;7.07;1.33;;;13.10;99.90;;;;;;5007765;28;20236;-59
2022/11/02 13:12:05;;;;;;;6.57;1.43;;;13.10;99.90;;;;;;4999765;28;20702;-59
2022/11/02 13:14:40;;;;;;;5.97;1.60;;;13.10;99.90;;;;;;5006103;28;20634;-59
2022/11/02 13:17:15;;;;;;;5.67;1.20;;;13.10;99.90;;;;;;5005257;28;20233;-59
2022/11/02 13:19:47;;;;;;;5.27;1.70;;;13.10;99.90;;;;;;5005531;28;20287;-59
2022/11/02 13:22:18;;;;;;;7.97;1.60;;;13.10;99.90;;;;;;5001988;28;20232;-59
2022/11/02 13:24:50;;;;;;;7.60;1.50;;;13.20;99.90;;;;;;5007098;28;20237;-59
2022/11/02 13:27:31;;;;;;;6.07;1.67;;;13.20;99.90;;;;;;4998577;28;20227;-59
2022/11/02 13:30:14;;;;;;;5.80;1.60;;;13.30;99.90;;;;;;5005483;28;20235;-59